createdAt,value
2023-01-20T00:01:48.168Z,25.23
2023-01-20T00:04:19.195Z,24.33
2023-01-20T00:06:51.213Z,26.60
2023-01-20T00:09:20.270Z,25.83
2023-01-20T00:11:48.983Z,24.47
2023-01-20T00:14:17.795Z,24.43
2023-01-20T00:16:46.299Z,24.10
2023-01-20T00:19:15.538Z,24.47
2023-01-20T00:21:44.605Z,24.87
2023-01-20T00:24:16.608Z,23.60
2023-01-20T00:26:45.157Z,24.70
2023-01-20T00:29:13.608Z,25.40
2023-01-20T00:31:42.980Z,23.80
2023-01-20T00:34:12.508Z,25.73
2023-01-20T00:36:41.035Z,24.40
2023-01-20T00:39:09.444Z,24.27
2023-01-20T00:41:39.361Z,25.00
2023-01-20T00:44:07.982Z,24.10
2023-01-20T00:46:36.678Z,26.47
2023-01-20T00:49:05.164Z,26.67
2023-01-20T00:51:34.388Z,24.20
2023-01-20T00:54:05.866Z,25.40
2023-01-20T00:56:34.451Z,25.57
2023-01-20T00:59:04.234Z,24.90
2023-01-20T01:01:32.752Z,22.70
2023-01-20T01:04:01.536Z,26.23
2023-01-20T01:06:29.976Z,23.37
2023-01-20T01:08:58.490Z,24.57
2023-01-20T01:11:26.976Z,23.87
2023-01-20T01:13:57.535Z,24.70
2023-01-20T01:16:27.419Z,25.80
2023-01-20T01:18:56.222Z,25.70
2023-01-20T01:21:24.698Z,23.77
2023-01-20T01:23:54.246Z,24.63
2023-01-20T01:26:22.846Z,24.20
2023-01-20T01:28:51.801Z,24.30
2023-01-20T01:31:22.047Z,25.00
2023-01-20T01:33:52.031Z,23.73
2023-01-20T01:36:20.547Z,24.47
2023-01-20T01:38:58.389Z,23.60
2023-01-20T01:41:28.019Z,22.03
2023-01-20T01:44:09.095Z,23.13
2023-01-20T01:46:40.612Z,23.57
2023-01-20T01:49:15.226Z,23.33
2023-01-20T01:51:49.294Z,22.50
2023-01-20T01:54:22.709Z,22.93
2023-01-20T01:56:52.138Z,21.43
2023-01-20T01:59:21.286Z,21.60
2023-01-20T02:01:52.513Z,23.30
2023-01-20T02:04:24.262Z,23.40
2023-01-20T02:06:57.680Z,20.63
2023-01-20T02:09:27.582Z,20.33
2023-01-20T02:11:59.901Z,20.70
2023-01-20T02:14:32.842Z,20.40
2023-01-20T02:17:09.062Z,19.13
2023-01-20T02:20:06.336Z,19.53
2023-01-20T02:22:43.425Z,18.30
2023-01-20T02:25:48.431Z,18.70
2023-01-20T02:28:55.134Z,20.40
2023-01-20T02:31:47.654Z,20.90
2023-01-20T02:34:22.237Z,20.07
2023-01-20T02:36:57.034Z,19.60
2023-01-20T02:39:31.897Z,20.97
2023-01-20T02:42:04.787Z,21.27
2023-01-20T02:44:42.313Z,18.53
2023-01-20T02:47:15.613Z,19.77
2023-01-20T02:49:51.830Z,20.57
2023-01-20T02:52:25.597Z,20.93
2023-01-20T02:54:57.045Z,21.50
2023-01-20T02:57:29.840Z,21.37
2023-01-20T03:00:04.119Z,21.07
2023-01-20T03:02:37.245Z,20.33
2023-01-20T03:05:08.690Z,19.20
2023-01-20T03:07:40.742Z,19.57
2023-01-20T03:10:14.629Z,19.80
2023-01-20T03:12:48.505Z,19.93
2023-01-20T03:15:18.281Z,20.77
2023-01-20T03:17:48.074Z,17.90
2023-01-20T03:20:17.318Z,18.50
2023-01-20T03:22:45.831Z,18.67
2023-01-20T03:25:15.699Z,19.20
2023-01-20T03:27:44.385Z,18.53
2023-01-20T03:30:28.117Z,20.03
2023-01-20T03:32:57.958Z,20.90
2023-01-20T03:35:26.592Z,20.10
2023-01-20T03:37:55.106Z,19.10
2023-01-20T03:40:26.078Z,18.60
2023-01-20T03:42:59.884Z,20.13
2023-01-20T03:45:35.803Z,20.97
2023-01-20T03:48:14.378Z,19.20
2023-01-20T03:50:49.985Z,19.23
2023-01-20T03:53:31.167Z,19.50
2023-01-20T03:56:05.132Z,19.83
2023-01-20T03:58:35.586Z,19.13
2023-01-20T04:01:17.902Z,20.10
2023-01-20T04:03:51.672Z,20.20
2023-01-20T04:06:22.833Z,20.13
2023-01-20T04:08:56.977Z,20.00
2023-01-20T04:11:26.196Z,19.13
2023-01-20T04:13:54.976Z,20.70
2023-01-20T04:16:24.782Z,19.77
2023-01-20T04:18:55.463Z,20.63
2023-01-20T04:21:29.598Z,21.23
2023-01-20T04:24:02.549Z,20.47
2023-01-20T04:26:31.269Z,21.73
2023-01-20T04:29:09.905Z,21.27
2023-01-20T04:31:40.572Z,19.90
2023-01-20T04:34:13.828Z,20.00
2023-01-20T04:36:42.556Z,19.90
2023-01-20T04:39:11.016Z,21.80
2023-01-20T04:41:39.503Z,21.13
2023-01-20T04:44:07.932Z,20.60
2023-01-20T04:46:38.331Z,20.60
2023-01-20T04:49:06.888Z,21.17
2023-01-20T04:51:36.805Z,21.17
2023-01-20T04:54:05.447Z,21.90
2023-01-20T04:56:34.271Z,21.80
2023-01-20T04:59:02.699Z,21.77
2023-01-20T05:01:31.263Z,23.40
2023-01-20T05:03:59.723Z,22.80
2023-01-20T05:06:30.689Z,22.30
2023-01-20T05:09:02.599Z,22.17
2023-01-20T05:11:31.189Z,21.90
2023-01-20T05:13:59.582Z,21.53
2023-01-20T05:16:32.172Z,21.80
2023-01-20T05:19:01.706Z,22.20
2023-01-20T05:21:31.813Z,22.67
2023-01-20T05:24:01.751Z,22.40
2023-01-20T05:26:30.306Z,21.63
2023-01-20T05:29:02.697Z,23.60
2023-01-20T05:31:31.615Z,24.87
2023-01-20T05:34:00.189Z,23.83
2023-01-20T05:36:29.478Z,24.00
2023-01-20T05:38:59.904Z,24.80
2023-01-20T05:41:29.880Z,23.33
2023-01-20T05:43:58.290Z,25.17
2023-01-20T05:46:26.907Z,25.17
2023-01-20T05:48:55.500Z,25.70
2023-01-20T05:51:24.600Z,25.60
2023-01-20T05:53:53.087Z,22.80
2023-01-20T05:56:21.677Z,24.50
2023-01-20T05:58:54.807Z,25.30
2023-01-20T06:01:26.045Z,25.43
2023-01-20T06:03:54.800Z,23.30
2023-01-20T06:06:23.333Z,24.10
2023-01-20T06:08:53.792Z,25.73
2023-01-20T06:11:22.472Z,25.43
2023-01-20T06:13:52.381Z,23.63
2023-01-20T06:16:21.336Z,24.73
2023-01-20T06:18:52.916Z,25.57
2023-01-20T06:21:21.339Z,23.73
2023-01-20T06:23:49.854Z,24.47
2023-01-20T06:26:20.854Z,24.63
2023-01-20T06:28:49.365Z,25.23
2023-01-20T06:31:19.237Z,27.63
2023-01-20T06:33:48.694Z,25.70
2023-01-20T06:36:17.781Z,23.73
2023-01-20T06:38:50.498Z,25.87
2023-01-20T06:41:21.255Z,25.33
2023-01-20T06:43:50.342Z,25.83
2023-01-20T06:46:20.295Z,26.30
2023-01-20T06:48:51.867Z,24.23
2023-01-20T06:51:21.464Z,25.20
2023-01-20T06:53:49.962Z,23.57
2023-01-20T06:56:21.489Z,24.17
2023-01-20T06:58:49.984Z,23.63
2023-01-20T07:01:23.639Z,23.17
2023-01-20T07:03:54.248Z,25.43
2023-01-20T07:06:28.819Z,23.17
2023-01-20T07:08:58.981Z,23.47
2023-01-20T07:11:28.866Z,23.50
2023-01-20T07:13:57.385Z,22.83
2023-01-20T07:16:27.238Z,23.07
2023-01-20T07:18:56.357Z,22.80
2023-01-20T07:21:26.530Z,21.70
2023-01-20T07:23:55.781Z,23.20
2023-01-20T07:26:26.681Z,23.77
2023-01-20T07:28:55.912Z,23.20
2023-01-20T07:31:28.333Z,23.80
2023-01-20T07:33:57.399Z,22.20
2023-01-20T07:36:26.301Z,22.37
2023-01-20T07:38:55.395Z,21.77
2023-01-20T07:41:24.411Z,23.30
2023-01-20T07:43:54.494Z,24.37
2023-01-20T07:46:27.945Z,22.30
2023-01-20T07:48:57.726Z,22.97
2023-01-20T07:51:26.286Z,25.70
2023-01-20T07:53:54.734Z,23.10
2023-01-20T07:56:25.205Z,24.57
2023-01-20T07:58:54.225Z,23.50
2023-01-20T08:01:24.972Z,25.50
2023-01-20T08:03:55.233Z,25.63
2023-01-20T08:06:26.878Z,26.80
2023-01-20T08:08:58.550Z,26.20
2023-01-20T08:11:29.988Z,25.20
2023-01-20T08:13:59.853Z,25.50
2023-01-20T08:16:28.478Z,25.60
2023-01-20T08:18:58.250Z,26.60
2023-01-20T08:21:28.177Z,25.83
2023-01-20T08:23:56.807Z,26.33
2023-01-20T08:26:25.871Z,24.50
2023-01-20T08:28:57.693Z,25.47
2023-01-20T08:31:26.362Z,24.87
2023-01-20T08:33:55.678Z,24.63
2023-01-20T08:36:30.221Z,24.20
2023-01-20T08:39:00.124Z,24.47
2023-01-20T08:41:30.326Z,23.10
2023-01-20T08:44:00.293Z,23.20
2023-01-20T08:46:29.173Z,21.37
2023-01-20T08:48:57.889Z,24.60
2023-01-20T08:51:29.391Z,23.00
2023-01-20T08:53:57.908Z,22.80
2023-01-20T08:56:31.752Z,24.20
2023-01-20T08:59:00.193Z,23.13
2023-01-20T09:01:31.010Z,21.97
2023-01-20T09:04:05.802Z,22.03
2023-01-20T09:06:41.951Z,21.07
2023-01-20T09:09:10.592Z,21.83
2023-01-20T09:11:40.905Z,22.50
2023-01-20T09:14:09.415Z,22.73
2023-01-20T09:16:38.061Z,22.40
2023-01-20T09:19:06.469Z,22.63
2023-01-20T09:21:35.063Z,20.57
2023-01-20T09:24:05.455Z,21.00
2023-01-20T09:26:38.584Z,21.50
2023-01-20T09:29:11.445Z,21.60
2023-01-20T09:31:44.566Z,19.43
2023-01-20T09:34:15.349Z,18.00
2023-01-20T09:36:44.106Z,18.90
2023-01-20T09:39:32.830Z,18.57
2023-01-20T09:42:23.725Z,19.10
2023-01-20T09:45:03.076Z,17.70
2023-01-20T09:47:34.195Z,19.20
2023-01-20T09:50:47.251Z,19.03
2023-01-20T09:53:32.792Z,20.10
2023-01-20T09:56:10.466Z,19.30
2023-01-20T09:58:44.813Z,18.83
2023-01-20T10:01:20.922Z,20.17
2023-01-20T10:03:53.984Z,18.93
2023-01-20T10:06:27.529Z,20.00
2023-01-20T10:09:05.916Z,18.33
2023-01-20T10:11:42.247Z,19.47
2023-01-20T10:14:18.456Z,19.43
2023-01-20T10:16:51.760Z,18.90
2023-01-20T10:19:27.235Z,18.10
2023-01-20T10:22:03.305Z,18.20
2023-01-20T10:24:55.598Z,18.63
2023-01-20T10:27:29.730Z,19.13
2023-01-20T10:30:07.684Z,18.30
2023-01-20T10:32:38.117Z,19.23
2023-01-20T10:35:15.508Z,18.40
2023-01-20T10:37:44.317Z,17.93
2023-01-20T10:40:26.884Z,19.20
2023-01-20T10:43:02.085Z,20.00
2023-01-20T10:45:44.037Z,18.10
2023-01-20T10:48:25.370Z,20.07
2023-01-20T10:51:02.585Z,18.27
2023-01-20T10:53:48.535Z,19.67
2023-01-20T10:56:43.984Z,16.53
2023-01-20T10:59:21.757Z,17.17
2023-01-20T11:02:02.423Z,18.80
2023-01-20T11:04:39.689Z,18.83
2023-01-20T11:07:16.574Z,18.70
2023-01-20T11:09:46.404Z,17.10
2023-01-20T11:12:17.543Z,16.23
2023-01-20T11:14:48.741Z,15.83
2023-01-20T11:17:20.333Z,17.10
2023-01-20T11:19:51.857Z,16.00
2023-01-20T11:22:29.167Z,17.93
2023-01-20T11:24:59.834Z,17.30
2023-01-20T11:27:31.425Z,16.40
2023-01-20T11:30:05.624Z,16.50
2023-01-20T11:32:35.883Z,17.03
2023-01-20T11:35:20.960Z,18.00
2023-01-20T11:37:49.619Z,18.13
2023-01-20T11:40:22.489Z,14.70
2023-01-20T11:42:52.220Z,17.53
2023-01-20T11:45:32.663Z,16.13
2023-01-20T11:48:04.690Z,16.37
2023-01-20T11:50:46.586Z,17.13
2023-01-20T11:53:25.668Z,18.10
2023-01-20T11:55:59.364Z,17.53
2023-01-20T11:58:32.176Z,15.60
2023-01-20T12:01:05.057Z,17.10
2023-01-20T12:03:59.614Z,17.10
2023-01-20T12:06:33.519Z,15.50
2023-01-20T12:09:04.659Z,15.40
2023-01-20T12:11:37.211Z,16.03
2023-01-20T12:14:28.668Z,15.67
2023-01-20T12:17:07.550Z,15.80
2023-01-20T12:19:49.070Z,15.03
2023-01-20T12:22:23.925Z,15.83
2023-01-20T12:25:10.777Z,16.30
2023-01-20T12:27:56.221Z,15.90
2023-01-20T12:30:54.461Z,14.60
2023-01-20T12:33:28.179Z,16.10
2023-01-20T12:36:38.232Z,15.40
2023-01-20T12:39:31.768Z,15.80
2023-01-20T12:42:34.425Z,16.93
2023-01-20T12:45:14.402Z,17.07
2023-01-20T12:48:01.962Z,16.97
2023-01-20T12:50:43.411Z,18.57
2023-01-20T12:53:27.652Z,16.30
2023-01-20T12:56:07.114Z,16.80
2023-01-20T12:58:49.331Z,17.20
2023-01-20T13:01:38.790Z,16.90
2023-01-20T13:04:32.257Z,18.10
2023-01-20T13:07:15.561Z,18.07
2023-01-20T13:09:57.340Z,16.87
2023-01-20T13:12:43.017Z,16.97
2023-01-20T13:15:20.317Z,18.73
2023-01-20T13:18:06.260Z,19.33
2023-01-20T13:20:40.650Z,18.50
2023-01-20T13:23:18.203Z,19.17
2023-01-20T13:25:50.676Z,19.77
2023-01-20T13:28:21.210Z,20.30
2023-01-20T13:30:51.710Z,20.00
2023-01-20T13:33:39.519Z,20.20
2023-01-20T13:36:19.083Z,19.73
2023-01-20T13:38:52.492Z,21.27
2023-01-20T13:41:48.583Z,19.40
2023-01-20T13:44:37.428Z,19.40
2023-01-20T13:47:08.599Z,19.53
2023-01-20T13:49:54.682Z,19.20
2023-01-20T13:52:56.593Z,18.13
2023-01-20T13:55:50.188Z,19.57
2023-01-20T13:58:20.417Z,18.90
2023-01-20T14:00:51.198Z,17.70
2023-01-20T14:03:24.305Z,17.20
2023-01-20T14:05:54.408Z,15.97
2023-01-20T14:08:24.429Z,18.20
2023-01-20T14:11:05.497Z,17.53
2023-01-20T14:13:34.181Z,19.87
2023-01-20T14:16:02.756Z,18.33
2023-01-20T14:18:32.314Z,20.07
2023-01-20T14:21:04.177Z,18.10
2023-01-20T14:23:38.836Z,17.90
2023-01-20T14:26:11.389Z,19.77
2023-01-20T14:28:49.947Z,17.57
2023-01-20T14:31:40.639Z,16.77
2023-01-20T14:34:28.253Z,18.97
2023-01-20T14:36:58.935Z,19.80
2023-01-20T14:39:30.561Z,18.20
2023-01-20T14:42:02.195Z,21.17
2023-01-20T14:44:36.362Z,19.13
2023-01-20T14:47:05.469Z,19.30
2023-01-20T14:49:39.400Z,20.80
2023-01-20T14:52:09.329Z,20.57
2023-01-20T14:54:43.244Z,20.57
2023-01-20T14:57:26.673Z,21.60
2023-01-20T15:00:17.857Z,21.30
2023-01-20T15:03:01.264Z,22.10
2023-01-20T15:05:39.525Z,21.67
2023-01-20T15:08:24.432Z,19.80
2023-01-20T15:11:23.053Z,20.80
2023-01-20T15:14:12.608Z,18.50
2023-01-20T15:16:51.979Z,19.40
2023-01-20T15:19:34.640Z,19.67
2023-01-20T15:22:19.914Z,18.50
2023-01-20T15:24:49.658Z,19.67
2023-01-20T15:27:36.011Z,19.37
2023-01-20T15:30:21.196Z,19.33
2023-01-20T15:32:50.713Z,20.00
2023-01-20T15:35:23.068Z,20.63
2023-01-20T15:37:52.490Z,20.40
2023-01-20T15:40:22.995Z,20.30
2023-01-20T15:42:53.548Z,21.33
2023-01-20T15:45:23.452Z,21.13
2023-01-20T15:47:52.887Z,21.73
2023-01-20T15:50:23.187Z,21.60
2023-01-20T15:52:51.775Z,20.83
2023-01-20T15:55:23.390Z,21.57
2023-01-20T15:57:53.612Z,20.03
2023-01-20T16:00:28.702Z,22.27
2023-01-20T16:02:57.280Z,20.60
2023-01-20T16:05:26.646Z,21.07
2023-01-20T16:07:55.371Z,20.77
2023-01-20T16:10:23.924Z,19.80
2023-01-20T16:12:52.519Z,23.07
2023-01-20T16:15:21.127Z,22.53
2023-01-20T16:17:52.868Z,21.90
2023-01-20T16:20:24.038Z,22.33
2023-01-20T16:22:53.033Z,22.07
2023-01-20T16:25:22.173Z,22.43
2023-01-20T16:27:50.805Z,21.40
2023-01-20T16:30:21.957Z,22.20
2023-01-20T16:32:52.094Z,23.43
2023-01-20T16:35:23.757Z,22.57
2023-01-20T16:37:52.941Z,21.90
2023-01-20T16:40:22.322Z,21.33
2023-01-20T16:42:50.827Z,22.53
2023-01-20T16:45:25.822Z,21.80
2023-01-20T16:47:57.050Z,23.70
2023-01-20T16:50:28.342Z,24.80
2023-01-20T16:52:59.976Z,24.10
2023-01-20T16:55:29.192Z,24.70
2023-01-20T16:57:57.620Z,22.93
2023-01-20T17:00:26.293Z,22.50
2023-01-20T17:02:56.151Z,23.00
2023-01-20T17:05:29.284Z,23.20
2023-01-20T17:07:59.272Z,23.20
2023-01-20T17:10:32.402Z,24.90
2023-01-20T17:13:01.091Z,24.93
2023-01-20T17:15:30.009Z,24.63
2023-01-20T17:18:00.400Z,25.87
2023-01-20T17:20:31.055Z,24.07
2023-01-20T17:22:59.696Z,23.90
2023-01-20T17:25:28.329Z,24.53
2023-01-20T17:27:56.903Z,25.70
2023-01-20T17:30:26.540Z,27.80
2023-01-20T17:32:55.323Z,26.43
2023-01-20T17:35:25.454Z,26.53
2023-01-20T17:37:54.382Z,25.60
2023-01-20T17:40:22.805Z,26.00
2023-01-20T17:42:53.895Z,25.57
2023-01-20T17:45:24.966Z,25.27
2023-01-20T17:47:53.574Z,25.70
2023-01-20T17:50:22.645Z,25.70
2023-01-20T17:52:54.326Z,25.20
2023-01-20T17:55:22.894Z,24.83
2023-01-20T17:57:51.721Z,25.67
2023-01-20T18:00:20.950Z,23.57
2023-01-20T18:02:50.137Z,26.40
2023-01-20T18:05:18.662Z,25.57
2023-01-20T18:07:47.089Z,25.50
2023-01-20T18:10:17.966Z,25.93
2023-01-20T18:12:47.608Z,25.40
2023-01-20T18:15:16.231Z,25.20
2023-01-20T18:17:44.768Z,26.57
2023-01-20T18:20:15.205Z,25.80
2023-01-20T18:22:49.004Z,28.70
2023-01-20T18:25:19.400Z,27.07
2023-01-20T18:27:47.831Z,26.53
2023-01-20T18:30:17.250Z,26.70
2023-01-20T18:32:46.310Z,26.70
2023-01-20T18:35:14.855Z,27.07
2023-01-20T18:37:43.269Z,28.77
2023-01-20T18:40:12.869Z,27.63
2023-01-20T18:42:45.156Z,25.93
2023-01-20T18:45:16.058Z,26.20
2023-01-20T18:47:47.362Z,27.90
2023-01-20T18:50:16.704Z,26.10
2023-01-20T18:52:45.327Z,28.40
2023-01-20T18:55:14.662Z,26.50
2023-01-20T18:57:44.755Z,26.97
2023-01-20T19:00:14.365Z,27.83
2023-01-20T19:02:43.691Z,27.60
2023-01-20T19:05:13.442Z,27.50
2023-01-20T19:07:41.998Z,26.87
2023-01-20T19:10:11.764Z,28.73
2023-01-20T19:12:40.309Z,28.57
2023-01-20T19:15:11.427Z,29.20
2023-01-20T19:17:41.386Z,28.50
2023-01-20T19:20:11.484Z,29.73
2023-01-20T19:22:40.360Z,29.70
2023-01-20T19:25:09.679Z,26.50
2023-01-20T19:27:38.247Z,28.73
2023-01-20T19:30:08.133Z,28.20
2023-01-20T19:32:41.250Z,27.40
2023-01-20T19:35:10.404Z,27.90
2023-01-20T19:37:39.349Z,26.70
2023-01-20T19:40:09.394Z,26.43
2023-01-20T19:42:37.886Z,27.50
2023-01-20T19:45:07.245Z,27.03
2023-01-20T19:47:37.176Z,26.73
2023-01-20T19:50:06.257Z,25.73
2023-01-20T19:52:34.872Z,27.93
2023-01-20T19:55:03.350Z,27.70
2023-01-20T19:57:34.069Z,26.17
2023-01-20T20:00:06.606Z,25.50
2023-01-20T20:02:41.605Z,26.70
2023-01-20T20:05:11.017Z,26.03
2023-01-20T20:07:39.850Z,27.00
2023-01-20T20:10:08.390Z,25.30
2023-01-20T20:12:36.881Z,28.10
2023-01-20T20:15:06.067Z,28.30
2023-01-20T20:17:34.630Z,26.80
2023-01-20T20:20:07.304Z,30.50
2023-01-20T20:22:35.866Z,28.17
2023-01-20T20:25:05.783Z,28.83
2023-01-20T20:27:34.373Z,30.77
2023-01-20T20:30:06.940Z,31.07
2023-01-20T20:32:35.484Z,28.90
2023-01-20T20:35:05.923Z,28.93
2023-01-20T20:37:34.691Z,29.40
2023-01-20T20:40:03.414Z,29.70
2023-01-20T20:42:32.814Z,31.23
2023-01-20T20:45:01.235Z,30.90
2023-01-20T20:47:29.764Z,30.90
2023-01-20T20:49:58.236Z,32.43
2023-01-20T20:52:28.121Z,32.77
2023-01-20T20:54:56.516Z,31.30
2023-01-20T20:57:25.058Z,32.37
2023-01-20T20:59:59.288Z,32.67
2023-01-20T21:02:28.258Z,29.60
2023-01-20T21:04:56.838Z,32.77
2023-01-20T21:07:25.421Z,31.67
2023-01-20T21:09:55.263Z,30.37
2023-01-20T21:12:23.807Z,32.50
2023-01-20T21:14:54.146Z,31.97
2023-01-20T21:17:22.691Z,31.27
2023-01-20T21:19:52.467Z,31.03
2023-01-20T21:22:21.128Z,30.50
2023-01-20T21:24:49.727Z,33.20
2023-01-20T21:27:22.747Z,32.50
2023-01-20T21:29:51.254Z,32.73
2023-01-20T21:32:19.797Z,34.83
2023-01-20T21:34:48.250Z,33.40
2023-01-20T21:37:19.161Z,34.57
2023-01-20T21:39:47.609Z,34.00
2023-01-20T21:42:16.323Z,32.90
2023-01-20T21:44:45.111Z,33.27
2023-01-20T21:47:13.660Z,31.70
2023-01-20T21:49:59.398Z,32.77
2023-01-20T21:52:43.124Z,31.07
2023-01-20T21:55:13.686Z,31.30
2023-01-20T21:57:42.250Z,31.57
2023-01-20T22:00:13.493Z,32.10
2023-01-20T22:02:44.833Z,32.20
2023-01-20T22:05:14.079Z,31.90
2023-01-20T22:07:43.897Z,33.63
2023-01-20T22:10:12.895Z,33.17
2023-01-20T22:12:41.395Z,32.70
2023-01-20T22:15:12.246Z,32.07
2023-01-20T22:17:42.932Z,31.97
2023-01-20T22:20:12.512Z,33.17
2023-01-20T22:22:41.094Z,31.83
2023-01-20T22:25:10.311Z,32.40
2023-01-20T22:27:38.827Z,30.93
2023-01-20T22:30:13.027Z,31.57
2023-01-20T22:32:41.557Z,32.97
2023-01-20T22:35:10.301Z,32.33
2023-01-20T22:37:38.832Z,32.00
2023-01-20T22:40:08.069Z,30.70
2023-01-20T22:42:38.825Z,31.87
2023-01-20T22:45:08.420Z,31.37
2023-01-20T22:47:38.242Z,29.83
2023-01-20T22:50:08.049Z,31.57
2023-01-20T22:52:36.471Z,33.30
2023-01-20T22:55:05.371Z,33.33
2023-01-20T22:57:33.984Z,32.17
2023-01-20T23:00:02.497Z,32.30
2023-01-20T23:02:30.958Z,32.17
2023-01-20T23:05:00.956Z,31.73
2023-01-20T23:07:29.483Z,33.53
2023-01-20T23:10:00.611Z,31.30
2023-01-20T23:12:29.053Z,30.90
2023-01-20T23:15:00.180Z,30.80
2023-01-20T23:17:29.672Z,32.37
2023-01-20T23:20:01.020Z,29.90
2023-01-20T23:22:30.875Z,29.87
2023-01-20T23:24:59.374Z,31.00
2023-01-20T23:27:27.775Z,31.87
2023-01-20T23:29:56.376Z,30.60
2023-01-20T23:32:24.849Z,30.93
2023-01-20T23:34:53.369Z,30.67
2023-01-20T23:37:21.753Z,29.80
2023-01-20T23:39:53.067Z,31.10
2023-01-20T23:42:21.488Z,29.87
2023-01-20T23:44:50.821Z,32.30
2023-01-20T23:47:19.451Z,30.37
2023-01-20T23:49:47.949Z,28.90
2023-01-20T23:52:16.548Z,28.70
2023-01-20T23:54:45.002Z,29.97
2023-01-20T23:57:14.991Z,30.00
2023-01-20T23:59:43.433Z,29.03
